Kai Xuan — BHWZ — position and weather

sailwx.info

Track history (hours):
 
Tides and Currents Weather Stations Pressure Air Temp Water Temp Dewpoint Dewpoint Depression Visibility Wind Speed Wind Dir Waves Ship Positions

Kai Xuan

Last reported at 2014-Sep-03 03:34 UTC. Time now 2014-Sep-03 04:35 UTC.
Position N 22°29' E 113°51'.

Length 77 m; draft 4.2 m.

Type: Tanker. MMSI: 412351760.

Date/timePositionNaut miles runAvg speedWind from/ knotsBaromVisibWave heightAir tempDewpointWater temp
2014-Sep-03 03:34N 22°29' E 113°51'0 0.0
2014-Sep-02 15:23N 22°29' E 113°51'0 0.0
2014-Sep-02 14:28N 22°29' E 113°51'0 0.0
2014-Sep-02 12:11N 22°29' E 113°51'0 0.0
2014-Sep-02 04:08N 22°29' E 113°51'0 0.1
2014-Sep-02 03:27N 22°29' E 113°51'0 0.0
2014-Sep-01 15:03N 22°29' E 113°51'0 0.0
2014-Sep-01 13:11N 22°29' E 113°51'0 0.0
2014-Sep-01 11:09N 22°29' E 113°51'0 0.0
2014-Sep-01 04:14N 22°29' E 113°51'0 0.0
2014-Sep-01 00:21N 22°29' E 113°51'0 0.0
2014-Aug-31 23:33N 22°29' E 113°51'0 0.0
2014-Aug-31 16:23N 22°29' E 113°51'0 0.0
2014-Aug-31 13:25N 22°29' E 113°51'4 1.8
2014-Aug-31 11:12N 22°26' E 113°47'10 2.5
2014-Aug-31 07:11N 22°23' E 113°37'0 0.0
2014-Aug-31 00:32N 22°23' E 113°37'0 0.0
2014-Aug-30 10:28N 22°23' E 113°37'0 0.0
2014-Aug-30 00:21N 22°23' E 113°37'0 0.1
2014-Aug-29 23:33N 22°23' E 113°37'0 0.0
2014-Aug-29 17:24N 22°23' E 113°37'0 0.1
2014-Aug-29 16:13N 22°23' E 113°37'0 0.0
2014-Aug-29 14:28N 22°23' E 113°37'0 0.0
2014-Aug-29 00:32N 22°23' E 113°37'0 0.1
2014-Aug-28 23:28N 22°23' E 113°37'0 0.0
2014-Aug-28 16:34N 22°23' E 113°37'0 0.0
2014-Aug-28 11:32N 22°23' E 113°37'0 0.0
2014-Aug-28 10:33N 22°23' E 113°37'0 0.1
2014-Aug-28 09:14N 22°23' E 113°37'6 1.0
2014-Aug-28 03:11N 22°25' E 113°44'5 6.5
2014-Aug-28 02:28N 22°29' E 113°47'6 6.2
2014-Aug-28 01:33N 22°28' E 113°52'4 3.6
2014-Aug-28 00:33N 22°29' E 113°56'0 0.0
2014-Aug-27 09:33N 22°29' E 113°56'0 0.0
2014-Aug-27 08:33N 22°29' E 113°56'0 0.0
2014-Aug-27 07:33N 22°29' E 113°56'0 0.0
2014-Aug-27 06:33N 22°29' E 113°56'0 0.0
2014-Aug-27 05:33N 22°29' E 113°56'0 0.0
2014-Aug-27 04:33N 22°29' E 113°56'0 0.0
2014-Aug-27 03:33N 22°29' E 113°56'0 0.0
2014-Aug-27 02:34N 22°29' E 113°56'0 0.0
2014-Aug-27 01:33N 22°29' E 113°56'0 0.0
2014-Aug-27 00:32N 22°29' E 113°56'0 0.0
2014-Aug-26 10:09N 22°29' E 113°56'0 0.0
2014-Aug-26 09:33N 22°29' E 113°56'0 0.0
2014-Aug-26 08:33N 22°29' E 113°56'0 0.0
2014-Aug-26 07:33N 22°29' E 113°56'0 0.0
2014-Aug-26 06:33N 22°29' E 113°56'0 0.0
2014-Aug-26 05:33N 22°29' E 113°56'0 0.0
2014-Aug-26 04:33N 22°29' E 113°56'0 0.0
2014-Aug-26 03:33N 22°29' E 113°56'0 0.0
2014-Aug-26 02:33N 22°29' E 113°56'0 0.0
2014-Aug-26 01:33N 22°29' E 113°56'3 2.6
2014-Aug-26 00:32N 22°27' E 113°54'3 2.9
2014-Aug-25 23:25N 22°28' E 113°51'0 0.1
2014-Aug-25 22:33N 22°28' E 113°51'0 0.0
2014-Aug-25 21:27N 22°28' E 113°51'0 0.0
2014-Aug-25 20:07N 22°28' E 113°51'0 0.0
2014-Aug-25 17:33N 22°28' E 113°51'0 0.0
2014-Aug-25 16:33N 22°28' E 113°51'0 0.0
2014-Aug-25 13:33N 22°29' E 113°51'7 5.3
2014-Aug-25 12:15N 22°34' E 113°47'23 8.0
2014-Aug-25 09:25N 22°54' E 113°35'0 0.1
2014-Aug-25 08:28N 22°54' E 113°35'0 0.0
2014-Aug-25 07:32N 22°54' E 113°35'0 0.0
2014-Aug-25 06:11N 22°54' E 113°35'0 0.0
2014-Aug-25 05:29N 22°54' E 113°35'0 0.0
2014-Aug-25 04:29N 22°54' E 113°35'0 0.0
2014-Aug-25 03:32N 22°54' E 113°35'0 0.0
2014-Aug-25 02:29N 22°54' E 113°35'0 0.0
2014-Aug-25 01:31N 22°54' E 113°35'0 0.0
2014-Aug-25 00:28N 22°54' E 113°35'0 0.0
2014-Aug-24 23:20N 22°54' E 113°35'0 0.0
2014-Aug-24 22:32N 22°54' E 113°35'0 0.0
2014-Aug-24 20:20N 22°54' E 113°35'0 0.0
2014-Aug-24 19:22N 22°54' E 113°35'0 0.0
2014-Aug-24 15:20N 22°54' E 113°35'0 0.0
2014-Aug-24 14:31N 22°54' E 113°35'0 0.0
2014-Aug-24 13:17N 22°54' E 113°35'0 0.0
2014-Aug-24 12:25N 22°54' E 113°35'0 0.0
2014-Aug-24 08:12N 22°54' E 113°35'0 0.0
2014-Aug-24 05:30N 22°54' E 113°35'  
Track history (hours):
 
Tides and Currents Weather Stations Pressure Air Temp Water Temp Dewpoint Dewpoint Depression Visibility Wind Speed Wind Dir Waves Ship Positions

Kai Xuan

Last reported at 2014-Sep-03 03:34 UTC. Time now 2014-Sep-03 04:35 UTC.
Position N 22°29' E 113°51'.

Length 77 m; draft 4.2 m.

Type: Tanker. MMSI: 412351760.

Date/timePositionNaut miles runAvg speedWind from/ knotsBaromVisibWave heightAir tempDewpointWater temp
2014-Sep-03 03:34N 22°29' E 113°51'0 0.0
2014-Sep-02 15:23N 22°29' E 113°51'0 0.0
2014-Sep-02 14:28N 22°29' E 113°51'0 0.0
2014-Sep-02 12:11N 22°29' E 113°51'0 0.0
2014-Sep-02 04:08N 22°29' E 113°51'0 0.1
2014-Sep-02 03:27N 22°29' E 113°51'0 0.0
2014-Sep-01 15:03N 22°29' E 113°51'0 0.0
2014-Sep-01 13:11N 22°29' E 113°51'0 0.0
2014-Sep-01 11:09N 22°29' E 113°51'0 0.0
2014-Sep-01 04:14N 22°29' E 113°51'0 0.0
2014-Sep-01 00:21N 22°29' E 113°51'0 0.0
2014-Aug-31 23:33N 22°29' E 113°51'0 0.0
2014-Aug-31 16:23N 22°29' E 113°51'0 0.0
2014-Aug-31 13:25N 22°29' E 113°51'4 1.8
2014-Aug-31 11:12N 22°26' E 113°47'10 2.5
2014-Aug-31 07:11N 22°23' E 113°37'0 0.0
2014-Aug-31 00:32N 22°23' E 113°37'0 0.0
2014-Aug-30 10:28N 22°23' E 113°37'0 0.0
2014-Aug-30 00:21N 22°23' E 113°37'0 0.1
2014-Aug-29 23:33N 22°23' E 113°37'0 0.0
2014-Aug-29 17:24N 22°23' E 113°37'0 0.1
2014-Aug-29 16:13N 22°23' E 113°37'0 0.0
2014-Aug-29 14:28N 22°23' E 113°37'0 0.0
2014-Aug-29 00:32N 22°23' E 113°37'0 0.1
2014-Aug-28 23:28N 22°23' E 113°37'0 0.0
2014-Aug-28 16:34N 22°23' E 113°37'0 0.0
2014-Aug-28 11:32N 22°23' E 113°37'0 0.0
2014-Aug-28 10:33N 22°23' E 113°37'0 0.1
2014-Aug-28 09:14N 22°23' E 113°37'6 1.0
2014-Aug-28 03:11N 22°25' E 113°44'5 6.5
2014-Aug-28 02:28N 22°29' E 113°47'6 6.2
2014-Aug-28 01:33N 22°28' E 113°52'4 3.6
2014-Aug-28 00:33N 22°29' E 113°56'0 0.0
2014-Aug-27 09:33N 22°29' E 113°56'0 0.0
2014-Aug-27 08:33N 22°29' E 113°56'0 0.0
2014-Aug-27 07:33N 22°29' E 113°56'0 0.0
2014-Aug-27 06:33N 22°29' E 113°56'0 0.0
2014-Aug-27 05:33N 22°29' E 113°56'0 0.0
2014-Aug-27 04:33N 22°29' E 113°56'0 0.0
2014-Aug-27 03:33N 22°29' E 113°56'0 0.0
2014-Aug-27 02:34N 22°29' E 113°56'0 0.0
2014-Aug-27 01:33N 22°29' E 113°56'0 0.0
2014-Aug-27 00:32N 22°29' E 113°56'0 0.0
2014-Aug-26 10:09N 22°29' E 113°56'0 0.0
2014-Aug-26 09:33N 22°29' E 113°56'0 0.0
2014-Aug-26 08:33N 22°29' E 113°56'0 0.0
2014-Aug-26 07:33N 22°29' E 113°56'0 0.0
2014-Aug-26 06:33N 22°29' E 113°56'0 0.0
2014-Aug-26 05:33N 22°29' E 113°56'0 0.0
2014-Aug-26 04:33N 22°29' E 113°56'0 0.0
2014-Aug-26 03:33N 22°29' E 113°56'0 0.0
2014-Aug-26 02:33N 22°29' E 113°56'0 0.0
2014-Aug-26 01:33N 22°29' E 113°56'3 2.6
2014-Aug-26 00:32N 22°27' E 113°54'3 2.9
2014-Aug-25 23:25N 22°28' E 113°51'0 0.1
2014-Aug-25 22:33N 22°28' E 113°51'0 0.0
2014-Aug-25 21:27N 22°28' E 113°51'0 0.0
2014-Aug-25 20:07N 22°28' E 113°51'0 0.0
2014-Aug-25 17:33N 22°28' E 113°51'0 0.0
2014-Aug-25 16:33N 22°28' E 113°51'0 0.0
2014-Aug-25 13:33N 22°29' E 113°51'7 5.3
2014-Aug-25 12:15N 22°34' E 113°47'23 8.0
2014-Aug-25 09:25N 22°54' E 113°35'0 0.1
2014-Aug-25 08:28N 22°54' E 113°35'0 0.0
2014-Aug-25 07:32N 22°54' E 113°35'0 0.0
2014-Aug-25 06:11N 22°54' E 113°35'0 0.0
2014-Aug-25 05:29N 22°54' E 113°35'0 0.0
2014-Aug-25 04:29N 22°54' E 113°35'0 0.0
2014-Aug-25 03:32N 22°54' E 113°35'0 0.0
2014-Aug-25 02:29N 22°54' E 113°35'0 0.0
2014-Aug-25 01:31N 22°54' E 113°35'0 0.0
2014-Aug-25 00:28N 22°54' E 113°35'0 0.0
2014-Aug-24 23:20N 22°54' E 113°35'0 0.0
2014-Aug-24 22:32N 22°54' E 113°35'0 0.0
2014-Aug-24 20:20N 22°54' E 113°35'0 0.0
2014-Aug-24 19:22N 22°54' E 113°35'0 0.0
2014-Aug-24 15:20N 22°54' E 113°35'0 0.0
2014-Aug-24 14:31N 22°54' E 113°35'0 0.0
2014-Aug-24 13:17N 22°54' E 113°35'0 0.0
2014-Aug-24 12:25N 22°54' E 113°35'0 0.0
2014-Aug-24 08:12N 22°54' E 113°35'0 0.0
2014-Aug-24 05:30N 22°54' E 113°35'  

Dump ship's entire track history